Birken, Canada
Current Conditions -  °F | °C
As of 5:00 AM on Friday 28 Nov 2014 (Local Time) from CWLY Reporting Station
Light Snow Light Snow  
Wind Chill: 15°   Ceiling: 1800
Heat Index: 25°   Visibility: 1mi
Dew Point: 19°   Wind: 10mph
Humidity: 80%   Direction: NA
Pressure: 29.63"   Gusts: 28mph
Location:  50.48°N, 122.61°W
Report Text: CWLY 281300Z AUTO VRB09G24KT 1SM -SN OVC018 M04/M07 A2963 RMK PRESRR SLP041
Loading
Personal Weather Stations






























Interactive Weather Map New forecast layout! Learn more

10-Day Weather Forecast

Advertisements
Track Severe Weather on mobile